createdAt,value
2018-06-19T00:02:14.978Z,52.66
2018-06-19T00:04:44.198Z,52.46
2018-06-19T00:07:12.815Z,52.07
2018-06-19T00:09:41.311Z,52.60
2018-06-19T00:12:10.186Z,51.99
2018-06-19T00:14:38.859Z,51.88
2018-06-19T00:17:07.598Z,52.12
2018-06-19T00:19:38.618Z,52.54
2018-06-19T00:22:07.502Z,52.55
2018-06-19T00:24:36.090Z,52.68
2018-06-19T00:27:04.845Z,52.29
2018-06-19T00:29:33.242Z,52.67
2018-06-19T00:32:01.684Z,52.47
2018-06-19T00:34:29.978Z,52.06
2018-06-19T00:36:58.298Z,52.04
2018-06-19T00:39:27.644Z,51.99
2018-06-19T00:41:56.813Z,52.20
2018-06-19T00:44:25.602Z,52.00
2018-06-19T00:46:55.496Z,52.55
2018-06-19T00:49:24.286Z,51.54
2018-06-19T00:51:53.175Z,50.53
2018-06-19T00:54:22.130Z,51.58
2018-06-19T00:56:54.974Z,52.05
2018-06-19T00:59:23.569Z,52.07
2018-06-19T01:01:53.246Z,52.06
2018-06-19T01:04:22.277Z,52.11
2018-06-19T01:06:51.831Z,52.07
2018-06-19T01:09:20.689Z,51.42
2018-06-19T01:11:50.090Z,51.58
2018-06-19T01:14:19.034Z,51.88
2018-06-19T01:16:48.317Z,52.16
2018-06-19T01:19:17.204Z,52.08
2018-06-19T01:21:46.095Z,51.91
2018-06-19T01:24:14.766Z,52.01
2018-06-19T01:26:43.412Z,51.33
2018-06-19T01:29:12.050Z,51.58
2018-06-19T01:31:40.798Z,52.00
2018-06-19T01:34:09.530Z,51.40
2018-06-19T01:36:38.244Z,51.48
2018-06-19T01:39:08.942Z,52.35
2018-06-19T01:41:37.280Z,52.26
2018-06-19T01:44:05.984Z,52.74
2018-06-19T01:46:34.344Z,52.69
2018-06-19T01:49:03.269Z,51.84
2018-06-19T01:51:31.782Z,52.01
2018-06-19T01:54:00.414Z,52.60
2018-06-19T01:56:28.802Z,51.89
2018-06-19T01:58:57.633Z,52.69
2018-06-19T02:01:26.436Z,52.60
2018-06-19T02:03:55.278Z,52.09
2018-06-19T02:06:24.101Z,52.32
2018-06-19T02:08:53.020Z,52.92
2018-06-19T02:11:21.314Z,52.13
2018-06-19T02:13:49.913Z,52.91
2018-06-19T02:16:18.551Z,53.09
2018-06-19T02:18:47.211Z,53.05
2018-06-19T02:21:16.447Z,53.19
2018-06-19T02:23:45.296Z,53.09
2018-06-19T02:26:14.385Z,53.32
2018-06-19T02:28:42.755Z,52.96
2018-06-19T02:31:11.802Z,52.80
2018-06-19T02:33:40.194Z,52.77
2018-06-19T02:36:08.810Z,52.79
2018-06-19T02:38:37.562Z,52.81
2018-06-19T02:41:06.587Z,52.80
2018-06-19T02:43:34.881Z,52.59
2018-06-19T02:46:04.025Z,51.90
2018-06-19T02:48:33.133Z,51.94
2018-06-19T02:51:01.679Z,52.01
2018-06-19T02:53:30.893Z,51.74
2018-06-19T02:55:59.358Z,52.12
2018-06-19T02:58:28.234Z,52.80
2018-06-19T03:00:56.645Z,52.18
2018-06-19T03:03:25.366Z,52.74
2018-06-19T03:05:54.771Z,52.41
2018-06-19T03:08:23.133Z,51.95
2018-06-19T03:10:52.075Z,52.88
2018-06-19T03:13:20.712Z,52.44
2018-06-19T03:15:49.463Z,52.57
2018-06-19T03:18:19.000Z,52.49
2018-06-19T03:20:47.602Z,52.48
2018-06-19T03:23:16.302Z,52.28
2018-06-19T03:25:44.905Z,53.12
2018-06-19T03:28:14.274Z,53.12
2018-06-19T03:30:42.739Z,53.22
2018-06-19T03:33:11.190Z,53.00
2018-06-19T03:35:39.521Z,53.31
2018-06-19T03:38:07.845Z,52.63
2018-06-19T03:40:37.110Z,52.88
2018-06-19T03:43:05.739Z,53.59
2018-06-19T03:45:34.697Z,53.45
2018-06-19T03:48:03.205Z,52.37
2018-06-19T03:50:31.877Z,52.38
2018-06-19T03:53:01.382Z,52.55
2018-06-19T03:55:30.182Z,53.00
2018-06-19T03:57:59.364Z,54.39
2018-06-19T04:00:28.146Z,53.77
2018-06-19T04:02:57.730Z,53.77
2018-06-19T04:05:27.455Z,53.46
2018-06-19T04:07:56.787Z,54.08
2018-06-19T04:10:26.445Z,53.89
2018-06-19T04:12:56.028Z,52.95
2018-06-19T04:15:24.689Z,53.51
2018-06-19T04:17:53.629Z,53.88
2018-06-19T04:20:21.877Z,53.54
2018-06-19T04:22:50.541Z,52.88
2018-06-19T04:25:19.641Z,52.55
2018-06-19T04:27:48.206Z,53.33
2018-06-19T04:30:17.214Z,53.03
2018-06-19T04:32:45.929Z,52.59
2018-06-19T04:35:15.656Z,53.25
2018-06-19T04:37:44.810Z,53.36
2018-06-19T04:40:14.086Z,53.38
2018-06-19T04:42:42.623Z,52.60
2018-06-19T04:45:11.498Z,53.12
2018-06-19T04:47:40.137Z,53.42
2018-06-19T04:50:08.848Z,53.90
2018-06-19T04:52:37.717Z,53.00
2018-06-19T04:55:06.661Z,53.65
2018-06-19T04:57:35.809Z,53.54
2018-06-19T05:00:05.133Z,53.45
2018-06-19T05:02:34.201Z,53.23
2018-06-19T05:05:02.636Z,53.84
2018-06-19T05:07:31.674Z,53.45
2018-06-19T05:10:00.406Z,54.71
2018-06-19T05:12:29.772Z,54.86
2018-06-19T05:14:58.797Z,54.32
2018-06-19T05:17:28.063Z,54.55
2018-06-19T05:19:56.442Z,54.24
2018-06-19T05:22:25.530Z,54.53
2018-06-19T05:24:54.714Z,54.35
2018-06-19T05:27:23.883Z,53.79
2018-06-19T05:29:52.254Z,53.72
2018-06-19T05:32:21.454Z,54.49
2018-06-19T05:34:50.299Z,55.17
2018-06-19T05:37:18.652Z,54.67
2018-06-19T05:39:46.967Z,54.61
2018-06-19T05:42:15.390Z,54.78
2018-06-19T05:44:43.756Z,55.31
2018-06-19T05:47:12.335Z,54.58
2018-06-19T05:49:40.605Z,55.27
2018-06-19T05:52:09.809Z,55.33
2018-06-19T05:54:38.846Z,55.42
2018-06-19T05:57:07.093Z,54.55
2018-06-19T05:59:36.002Z,55.10
2018-06-19T06:02:04.747Z,55.10
2018-06-19T06:04:33.453Z,55.24
2018-06-19T06:07:02.172Z,54.52
2018-06-19T06:09:31.018Z,54.45
2018-06-19T06:12:00.262Z,54.54
2018-06-19T06:14:28.787Z,55.19
2018-06-19T06:16:57.738Z,54.81
2018-06-19T06:19:26.406Z,54.45
2018-06-19T06:21:54.791Z,54.93
2018-06-19T06:24:23.090Z,53.90
2018-06-19T06:26:52.154Z,51.65
2018-06-19T06:29:20.990Z,51.72
2018-06-19T06:31:49.557Z,51.79
2018-06-19T06:34:18.279Z,51.18
2018-06-19T06:36:46.722Z,51.50
2018-06-19T06:39:15.175Z,51.24
2018-06-19T06:41:43.946Z,51.81
2018-06-19T06:44:12.350Z,51.00
2018-06-19T06:46:41.470Z,51.81
2018-06-19T06:49:10.158Z,52.02
2018-06-19T06:51:38.685Z,51.83
2018-06-19T06:54:07.525Z,51.40
2018-06-19T06:56:36.082Z,51.85
2018-06-19T06:59:04.680Z,51.32
2018-06-19T07:01:34.039Z,51.86
2018-06-19T07:04:02.970Z,52.20
2018-06-19T07:06:32.589Z,52.07
2018-06-19T07:09:01.466Z,52.35
2018-06-19T07:11:30.387Z,52.88
2018-06-19T07:13:59.555Z,52.88
2018-06-19T07:16:28.030Z,53.19
2018-06-19T07:18:57.223Z,52.44
2018-06-19T07:21:30.103Z,52.56
2018-06-19T07:23:58.645Z,53.18
2018-06-19T07:26:27.764Z,53.35
2018-06-19T07:28:56.211Z,52.76
2018-06-19T07:31:24.851Z,53.23
2018-06-19T07:33:54.276Z,53.42
2018-06-19T07:36:22.921Z,53.50
2018-06-19T07:38:51.572Z,53.32
2018-06-19T07:41:20.250Z,53.70
2018-06-19T07:43:49.259Z,52.90
2018-06-19T07:46:19.277Z,52.66
2018-06-19T07:48:47.608Z,53.65
2018-06-19T07:51:16.161Z,53.06
2018-06-19T07:53:44.605Z,53.71
2018-06-19T07:56:13.422Z,53.00
2018-06-19T07:58:42.053Z,53.71
2018-06-19T08:01:11.198Z,52.85
2018-06-19T08:03:40.158Z,52.88
2018-06-19T08:06:08.606Z,53.56
2018-06-19T08:08:37.553Z,53.17
2018-06-19T08:11:05.658Z,52.60
2018-06-19T08:13:34.569Z,53.51
2018-06-19T08:16:03.984Z,53.05
2018-06-19T08:18:33.087Z,52.98
2018-06-19T08:21:01.625Z,53.22
2018-06-19T08:23:30.810Z,53.20
2018-06-19T08:25:59.975Z,53.94
2018-06-19T08:28:29.046Z,53.16
2018-06-19T08:30:57.314Z,53.35
2018-06-19T08:33:26.277Z,54.01
2018-06-19T08:35:54.753Z,53.36
2018-06-19T08:38:23.181Z,53.95
2018-06-19T08:40:52.325Z,53.36
2018-06-19T08:43:22.322Z,54.11
2018-06-19T08:45:51.090Z,53.62
2018-06-19T08:48:20.333Z,53.39
2018-06-19T08:50:51.176Z,54.17
2018-06-19T08:53:19.981Z,54.15
2018-06-19T08:55:49.462Z,54.23
2018-06-19T08:58:18.558Z,53.73
2018-06-19T09:00:47.256Z,54.71
2018-06-19T09:03:15.849Z,53.89
2018-06-19T09:05:45.105Z,54.04
2018-06-19T09:08:15.405Z,53.99
2018-06-19T09:10:46.161Z,54.47
2018-06-19T09:13:14.862Z,54.58
2018-06-19T09:15:46.511Z,54.10
2018-06-19T09:18:15.127Z,54.30
2018-06-19T09:20:44.853Z,54.21
2018-06-19T09:23:13.526Z,54.80
2018-06-19T09:25:42.977Z,55.31
2018-06-19T09:28:11.978Z,55.50
2018-06-19T09:30:43.120Z,55.41
2018-06-19T09:33:12.925Z,55.12
2018-06-19T09:35:42.210Z,55.10
2018-06-19T09:38:12.430Z,55.30
2018-06-19T09:40:43.324Z,56.12
2018-06-19T09:43:13.942Z,56.09
2018-06-19T09:45:42.702Z,56.22
2018-06-19T09:48:11.418Z,55.98
2018-06-19T09:50:40.461Z,55.70
2018-06-19T09:53:09.097Z,56.07
2018-06-19T09:55:38.815Z,56.38
2018-06-19T09:58:11.231Z,56.98
2018-06-19T10:00:39.661Z,56.40
2018-06-19T10:03:08.670Z,56.10
2018-06-19T10:05:39.389Z,56.86
2018-06-19T10:08:09.805Z,56.55
2018-06-19T10:10:38.766Z,56.38
2018-06-19T10:13:07.347Z,57.15
2018-06-19T10:15:36.063Z,56.76
2018-06-19T10:18:04.962Z,57.04
2018-06-19T10:20:33.577Z,57.08
2018-06-19T10:23:02.018Z,57.29
2018-06-19T10:25:31.622Z,57.52
2018-06-19T10:28:00.758Z,57.76
2018-06-19T10:30:29.538Z,58.08
2018-06-19T10:32:58.350Z,57.57
2018-06-19T10:35:27.421Z,57.90
2018-06-19T10:37:56.121Z,58.43
2018-06-19T10:40:24.779Z,57.90
2018-06-19T10:42:53.259Z,57.60
2018-06-19T10:45:22.507Z,58.43
2018-06-19T10:47:51.386Z,58.51
2018-06-19T10:50:19.993Z,58.62
2018-06-19T10:52:49.155Z,58.36
2018-06-19T10:55:17.466Z,59.01
2018-06-19T10:57:46.093Z,58.15
2018-06-19T11:00:15.106Z,58.52
2018-06-19T11:02:44.469Z,58.72
2018-06-19T11:05:12.912Z,58.28
2018-06-19T11:07:41.670Z,58.47
2018-06-19T11:10:10.689Z,58.67
2018-06-19T11:12:39.090Z,58.92
2018-06-19T11:15:10.718Z,58.06
2018-06-19T11:17:40.516Z,58.87
2018-06-19T11:20:10.830Z,58.74
2018-06-19T11:22:41.614Z,58.64
2018-06-19T11:25:10.830Z,58.32
2018-06-19T11:27:39.223Z,58.94
2018-06-19T11:30:09.000Z,58.34
2018-06-19T11:32:37.443Z,57.89
2018-06-19T11:35:07.001Z,58.19
2018-06-19T11:37:35.363Z,58.41
2018-06-19T11:40:06.683Z,58.84
2018-06-19T11:42:35.150Z,57.82
2018-06-19T11:45:04.709Z,58.75
2018-06-19T11:47:33.557Z,58.55
2018-06-19T11:50:02.574Z,58.51
2018-06-19T11:52:31.817Z,58.75
2018-06-19T11:55:01.103Z,58.61
2018-06-19T11:57:32.183Z,57.94
2018-06-19T12:00:01.953Z,57.87
2018-06-19T12:02:31.149Z,58.43
2018-06-19T12:04:59.593Z,58.67
2018-06-19T12:07:33.114Z,59.01
2018-06-19T12:10:01.874Z,58.15
2018-06-19T12:12:31.090Z,57.87
2018-06-19T12:15:00.528Z,58.02
2018-06-19T12:17:28.930Z,59.09
2018-06-19T12:19:57.631Z,58.82
2018-06-19T12:22:27.134Z,58.92
2018-06-19T12:24:56.478Z,58.21
2018-06-19T12:27:25.560Z,57.95
2018-06-19T12:29:54.578Z,57.41
2018-06-19T12:32:23.410Z,57.99
2018-06-19T12:34:52.230Z,57.95
2018-06-19T12:37:20.841Z,57.29
2018-06-19T12:39:49.347Z,57.36
2018-06-19T12:42:17.804Z,57.17
2018-06-19T12:44:47.298Z,57.12
2018-06-19T12:47:16.226Z,57.55
2018-06-19T12:50:00.794Z,56.81
2018-06-19T12:54:42.313Z,57.55
2018-06-19T12:57:11.948Z,57.38
2018-06-19T12:59:40.289Z,57.86
2018-06-19T13:02:09.863Z,57.96
2018-06-19T13:04:49.434Z,57.45
2018-06-19T13:07:17.884Z,56.97
2018-06-19T13:09:46.306Z,56.89
2018-06-19T13:14:32.518Z,57.51
2018-06-19T13:17:11.936Z,56.93
2018-06-19T13:19:51.842Z,56.98
2018-06-19T13:22:20.330Z,56.36
2018-06-19T13:24:48.782Z,57.04
2018-06-19T13:27:17.089Z,56.89
2018-06-19T13:29:57.925Z,56.77
2018-06-19T13:32:26.613Z,56.00
2018-06-19T13:34:55.017Z,56.66
2018-06-19T13:37:23.496Z,56.41
2018-06-19T13:42:08.809Z,55.38
2018-06-19T13:44:49.170Z,56.57
2018-06-19T13:47:17.634Z,55.98
2018-06-19T13:49:46.326Z,56.89
2018-06-19T13:52:14.669Z,56.07
2018-06-19T13:54:43.030Z,56.49
2018-06-19T13:57:28.053Z,56.71
2018-06-19T13:59:56.688Z,55.91
2018-06-19T14:02:25.063Z,57.07
2018-06-19T14:04:54.696Z,57.18
2018-06-19T14:07:24.138Z,56.37
2018-06-19T14:10:03.830Z,56.21
2018-06-19T14:13:04.782Z,56.74
2018-06-19T14:15:37.335Z,55.97
2018-06-19T14:18:06.043Z,56.99
2018-06-19T14:20:35.542Z,56.86
2018-06-19T14:23:04.152Z,55.95
2018-06-19T14:25:32.626Z,56.75
2018-06-19T14:28:00.888Z,56.06
2018-06-19T14:30:29.378Z,55.89
2018-06-19T14:32:57.740Z,55.81
2018-06-19T14:35:26.160Z,55.73
2018-06-19T14:37:54.613Z,55.81
2018-06-19T14:40:23.092Z,55.59
2018-06-19T14:42:51.377Z,55.96
2018-06-19T14:45:19.641Z,55.66
2018-06-19T14:47:47.921Z,56.16
2018-06-19T14:50:16.216Z,55.65
2018-06-19T14:52:44.445Z,55.47
2018-06-19T14:55:12.754Z,55.72
2018-06-19T14:57:41.232Z,56.17
2018-06-19T15:00:10.549Z,55.96
2018-06-19T15:02:39.049Z,55.36
2018-06-19T15:05:07.799Z,55.59
2018-06-19T15:07:37.373Z,55.92
2018-06-19T15:10:06.737Z,55.11
2018-06-19T15:12:35.084Z,55.77
2018-06-19T15:15:03.467Z,56.07
2018-06-19T15:17:31.755Z,56.23
2018-06-19T15:20:00.107Z,56.06
2018-06-19T15:22:28.712Z,55.77
2018-06-19T15:24:56.948Z,56.24
2018-06-19T15:27:25.238Z,56.15
2018-06-19T15:29:53.554Z,55.64
2018-06-19T15:32:22.399Z,55.49
2018-06-19T15:34:50.715Z,56.41
2018-06-19T15:37:19.102Z,55.84
2018-06-19T15:39:47.467Z,55.96
2018-06-19T15:42:15.737Z,56.36
2018-06-19T15:44:43.986Z,55.71
2018-06-19T15:47:12.286Z,55.68
2018-06-19T15:49:40.573Z,55.66
2018-06-19T15:52:09.371Z,56.11
2018-06-19T15:54:37.710Z,55.85
2018-06-19T15:57:06.005Z,55.69
2018-06-19T15:59:34.381Z,56.36
2018-06-19T16:02:02.797Z,56.41
2018-06-19T16:04:31.244Z,56.44
2018-06-19T16:06:59.503Z,55.51
2018-06-19T16:09:27.817Z,56.50
2018-06-19T16:11:56.107Z,56.62
2018-06-19T16:14:24.550Z,56.00
2018-06-19T16:16:52.810Z,56.18
2018-06-19T16:19:21.111Z,55.94
2018-06-19T16:21:49.378Z,55.61
2018-06-19T16:24:17.710Z,55.10
2018-06-19T16:26:46.141Z,55.29
2018-06-19T16:29:14.417Z,54.92
2018-06-19T16:31:42.849Z,55.84
2018-06-19T16:34:11.309Z,55.08
2018-06-19T16:36:39.646Z,55.93
2018-06-19T16:39:09.337Z,55.40
2018-06-19T16:41:37.663Z,55.93
2018-06-19T16:44:06.059Z,55.98
2018-06-19T16:46:34.694Z,55.15
2018-06-19T16:49:02.970Z,55.56
2018-06-19T16:51:31.276Z,55.21
2018-06-19T16:53:59.524Z,55.51
2018-06-19T16:56:27.867Z,55.85
2018-06-19T16:58:56.322Z,56.15
2018-06-19T17:01:25.055Z,55.22
2018-06-19T17:03:54.643Z,55.07
2018-06-19T17:06:23.122Z,56.14
2018-06-19T17:08:51.701Z,55.98
2018-06-19T17:11:21.146Z,55.44
2018-06-19T17:13:49.774Z,55.48
2018-06-19T17:16:18.258Z,55.57
2018-06-19T17:18:48.112Z,56.06
2018-06-19T17:21:16.790Z,56.21
2018-06-19T17:23:45.417Z,56.34
2018-06-19T17:26:13.863Z,55.48
2018-06-19T17:28:42.297Z,56.26
2018-06-19T17:31:10.916Z,55.91
2018-06-19T17:33:40.794Z,56.44
2018-06-19T17:36:10.931Z,55.84
2018-06-19T17:38:39.515Z,56.25
2018-06-19T17:41:08.135Z,55.90
2018-06-19T17:43:37.590Z,56.43
2018-06-19T17:46:06.093Z,55.97
2018-06-19T17:48:34.672Z,56.50
2018-06-19T17:51:04.124Z,56.36
2018-06-19T17:53:33.360Z,56.36
2018-06-19T17:56:01.859Z,55.63
2018-06-19T17:58:33.187Z,55.78
2018-06-19T18:01:02.475Z,55.28
2018-06-19T18:03:32.145Z,56.07
2018-06-19T18:06:00.703Z,55.90
2018-06-19T18:08:29.359Z,55.23
2018-06-19T18:10:58.047Z,55.50
2018-06-19T18:13:26.817Z,55.22
2018-06-19T18:15:55.969Z,55.07
2018-06-19T18:18:24.389Z,55.00
2018-06-19T18:20:52.898Z,55.75
2018-06-19T18:23:21.250Z,55.26
2018-06-19T18:26:52.470Z,55.01
2018-06-19T18:29:20.857Z,55.68
2018-06-19T18:31:49.154Z,55.29
2018-06-19T18:34:17.453Z,55.71
2018-06-19T18:36:46.145Z,55.59
2018-06-19T18:39:14.602Z,54.95
2018-06-19T18:41:42.882Z,55.00
2018-06-19T18:44:11.146Z,55.00
2018-06-19T18:46:39.477Z,55.00
2018-06-19T18:49:07.690Z,55.72
2018-06-19T18:51:36.005Z,54.98
2018-06-19T18:54:04.511Z,55.85
2018-06-19T18:56:32.974Z,55.08
2018-06-19T18:59:01.405Z,55.13
2018-06-19T19:01:29.910Z,55.07
2018-06-19T19:03:58.190Z,55.97
2018-06-19T19:06:26.435Z,56.00
2018-06-19T19:08:54.855Z,56.08
2018-06-19T19:11:23.202Z,55.70
2018-06-19T19:13:51.491Z,56.05
2018-06-19T19:16:25.123Z,55.32
2018-06-19T19:18:58.894Z,56.12
2018-06-19T19:21:27.158Z,56.20
2018-06-19T19:23:55.457Z,55.97
2018-06-19T19:26:28.967Z,55.51
2018-06-19T19:29:02.548Z,55.38
2018-06-19T19:31:31.010Z,55.21
2018-06-19T19:33:59.399Z,56.00
2018-06-19T19:36:33.050Z,55.32
2018-06-19T19:39:06.748Z,56.08
2018-06-19T19:41:35.107Z,55.90
2018-06-19T19:44:03.379Z,55.87
2018-06-19T19:46:36.934Z,56.01
2018-06-19T19:49:05.454Z,55.36
2018-06-19T19:51:33.840Z,55.38
2018-06-19T19:54:02.292Z,55.92
2018-06-19T19:56:36.077Z,55.42
2018-06-19T19:59:04.487Z,56.02
2018-06-19T20:01:32.903Z,55.32
2018-06-19T20:04:01.262Z,55.33
2018-06-19T20:06:29.532Z,55.77
2018-06-19T20:08:57.785Z,55.98
2018-06-19T20:11:26.088Z,55.35
2018-06-19T20:13:54.344Z,55.59
2018-06-19T20:16:22.652Z,56.15
2018-06-19T20:18:52.176Z,55.80
2018-06-19T20:21:21.855Z,55.32
2018-06-19T20:23:52.302Z,56.29
2018-06-19T20:26:21.894Z,55.47
2018-06-19T20:28:51.811Z,56.11
2018-06-19T20:31:20.182Z,55.35
2018-06-19T20:33:48.458Z,56.12
2018-06-19T20:36:16.850Z,56.25
2018-06-19T20:38:45.284Z,56.25
2018-06-19T20:41:13.681Z,55.84
2018-06-19T20:43:41.970Z,55.44
2018-06-19T20:46:10.222Z,55.58
2018-06-19T20:48:38.555Z,55.32
2018-06-19T20:51:06.992Z,55.31
2018-06-19T20:53:35.349Z,55.65
2018-06-19T20:56:03.769Z,55.68
2018-06-19T20:58:32.021Z,55.50
2018-06-19T21:01:00.320Z,56.00
2018-06-19T21:03:28.602Z,55.91
2018-06-19T21:05:56.860Z,55.55
2018-06-19T21:08:30.626Z,56.19
2018-06-19T21:10:58.954Z,56.31
2018-06-19T21:13:27.219Z,56.44
2018-06-19T21:15:55.514Z,55.99
2018-06-19T21:18:23.759Z,56.64
2018-06-19T21:20:52.149Z,55.90
2018-06-19T21:23:20.543Z,56.77
2018-06-19T21:25:48.855Z,56.62
2018-06-19T21:28:17.286Z,56.54
2018-06-19T21:30:45.689Z,56.56
2018-06-19T21:33:14.081Z,56.59
2018-06-19T21:35:42.313Z,56.61
2018-06-19T21:38:10.621Z,56.58
2018-06-19T21:40:38.871Z,55.77
2018-06-19T21:43:07.266Z,56.54
2018-06-19T21:45:35.725Z,56.38
2018-06-19T21:48:04.110Z,56.94
2018-06-19T21:50:32.585Z,56.35
2018-06-19T21:53:01.087Z,56.91
2018-06-19T21:55:29.590Z,56.55
2018-06-19T21:57:58.122Z,57.03
2018-06-19T22:00:26.531Z,56.24
2018-06-19T22:02:54.814Z,56.61
2018-06-19T22:05:23.047Z,55.94
2018-06-19T22:07:51.362Z,56.93
2018-06-19T22:10:19.640Z,56.06
2018-06-19T22:12:47.910Z,55.91
2018-06-19T22:15:16.173Z,56.67
2018-06-19T22:17:44.463Z,55.94
2018-06-19T22:20:12.738Z,55.90
2018-06-19T22:22:41.022Z,55.89
2018-06-19T22:25:09.289Z,56.73
2018-06-19T22:27:37.566Z,56.75
2018-06-19T22:30:05.824Z,56.05
2018-06-19T22:32:34.134Z,57.09
2018-06-19T22:35:02.386Z,56.29
2018-06-19T22:37:30.675Z,56.20
2018-06-19T22:39:58.954Z,57.08
2018-06-19T22:42:27.234Z,56.33
2018-06-19T22:44:55.489Z,57.34
2018-06-19T22:47:23.783Z,57.45
2018-06-19T22:49:52.131Z,57.40
2018-06-19T22:52:20.517Z,56.63
2018-06-19T22:54:48.809Z,56.58
2018-06-19T22:57:17.070Z,56.68
2018-06-19T22:59:45.361Z,57.59
2018-06-19T23:02:13.605Z,56.64
2018-06-19T23:04:41.909Z,57.52
